Time;durP1;ratioP1;P1;durP2;ratioP2;P2;SDS_P1;SDS_P2;PMS_P1;PMS_P2;Temp;Humidity;BMP_temperature;BMP_pressure;BME280_temperature;BME280_humidity;BME280_pressure;Samples;Min_cycle;Max_cycle;Signal;HPM_P1;HPM_P2
2021/12/08 00:00:30;;;;;;;;;2.50;2.00;;;;;21.10;35.80;99080.41;5056814;28;45430;-54
2021/12/08 00:02:57;;;;;;;;;1.50;1.25;;;;;21.10;35.69;99071.69;5056415;28;46978;-52
2021/12/08 00:05:23;;;;;;;;;3.00;2.00;;;;;21.09;35.93;99085.81;5056247;28;45252;-56
2021/12/08 00:07:49;;;;;;;;;1.75;1.75;;;;;21.07;35.80;99067.50;5056367;28;45336;-56
2021/12/08 00:13:03;;;;;;;;;3.00;1.75;;;;;21.06;36.25;99080.81;5056177;28;45852;-55
2021/12/08 00:15:36;;;;;;;;;2.00;1.00;;;;;21.07;36.26;99078.03;5056342;28;45737;-57
2021/12/08 00:18:14;;;;;;;;;1.00;1.00;;;;;21.10;35.71;99074.31;5055610;28;45399;-54
2021/12/08 00:20:42;;;;;;;;;1.00;1.00;;;;;21.13;36.29;99068.78;5038241;28;45352;-53
2021/12/08 00:23:08;;;;;;;;;2.00;2.00;;;;;21.16;36.19;99060.63;5055935;28;45432;-54
2021/12/08 00:25:35;;;;;;;;;2.75;2.00;;;;;21.20;36.01;99061.19;5056037;28;45219;-55
2021/12/08 00:28:01;;;;;;;;;2.00;1.00;;;;;21.26;35.93;99052.75;5056142;28;45410;-51
2021/12/08 00:30:28;;;;;;;;;3.00;1.00;;;;;21.31;36.18;99051.38;5056609;28;45552;-57
2021/12/08 00:32:56;;;;;;;;;1.00;1.00;;;;;21.35;35.76;99059.00;5037891;28;46240;-54
2021/12/08 00:35:23;;;;;;;;;1.00;1.00;;;;;21.39;35.89;99057.78;5055868;28;45712;-52
2021/12/08 00:37:48;;;;;;;;;1.00;1.00;;;;;21.46;35.48;99053.63;5056092;28;45329;-52
2021/12/08 00:40:15;;;;;;;;;6.75;2.25;;;;;21.49;35.80;99053.38;5056091;28;45445;-51
2021/12/08 00:42:41;;;;;;;;;2.00;0.75;;;;;21.52;35.81;99058.38;5055828;28;46453;-50
2021/12/08 00:45:10;;;;;;;;;1.00;1.00;;;;;21.57;35.55;99056.16;5055885;28;45327;-54
2021/12/08 00:47:35;;;;;;;;;1.00;1.00;;;;;21.60;35.27;99065.66;5059243;28;45322;-53
2021/12/08 00:50:01;;;;;;;;;1.00;0.00;;;;;21.64;35.81;99069.66;5059732;28;45329;-55
2021/12/08 00:52:29;;;;;;;;;0.25;0.25;;;;;21.67;35.34;99090.50;5059123;28;46579;-56
2021/12/08 00:54:55;;;;;;;;;3.00;1.50;;;;;21.70;35.26;99095.50;5059151;28;45863;-55
2021/12/08 00:57:21;;;;;;;;;2.00;2.00;;;;;21.73;35.59;99097.84;5059258;28;45434;-56
2021/12/08 00:59:47;;;;;;;;;1.00;1.00;;;;;21.77;35.44;99098.44;5059401;28;45462;-57
2021/12/08 01:02:12;;;;;;;;;1.25;1.00;;;;;21.78;35.23;99098.31;5058925;28;45490;-57
2021/12/08 01:04:38;;;;;;;;;1.00;0.00;;;;;21.80;35.19;99094.69;5057214;28;45443;-57
2021/12/08 01:07:04;;;;;;;;;1.25;1.25;;;;;21.82;35.21;99096.22;5058925;28;45390;-56
2021/12/08 01:09:30;;;;;;;;;1.75;1.25;;;;;21.83;35.44;99105.81;5059611;28;45324;-60
2021/12/08 01:11:57;;;;;;;;;0.25;0.25;;;;;21.81;35.19;99091.09;5058771;28;46573;-57
2021/12/08 01:14:24;;;;;;;;;0.75;0.75;;;;;21.83;35.39;99097.88;5058787;28;45760;-54
2021/12/08 01:16:51;;;;;;;;;0.00;0.00;;;;;21.84;35.20;99102.19;5057688;28;45412;-57
2021/12/08 01:19:16;;;;;;;;;2.00;0.00;;;;;21.84;34.97;99096.94;5058766;28;45447;-55
2021/12/08 01:21:42;;;;;;;;;0.25;0.25;;;;;21.85;35.11;99095.97;5058709;28;46758;-56
2021/12/08 01:24:07;;;;;;;;;0.00;0.00;;;;;21.85;35.05;99092.47;5058737;28;45429;-51
2021/12/08 01:26:33;;;;;;;;;2.00;0.25;;;;;21.84;35.17;99083.75;5059000;28;45349;-54
2021/12/08 01:28:58;;;;;;;;;2.00;2.00;;;;;21.82;34.92;99077.75;5058881;28;45367;-57
2021/12/08 01:31:24;;;;;;;;;1.25;0.50;;;;;21.83;34.78;99066.25;5040667;28;47252;-51
2021/12/08 01:33:50;;;;;;;;;0.50;0.50;;;;;21.83;35.05;99065.44;5058512;28;45870;-55
2021/12/08 01:36:16;;;;;;;;;0.50;0.50;;;;;21.81;34.72;99065.53;5058729;28;45202;-58
2021/12/08 01:38:42;;;;;;;;;0.50;0.00;;;;;21.83;34.80;99063.59;5058722;28;45166;-50
2021/12/08 01:41:08;;;;;;;;;0.50;0.50;;;;;21.82;35.03;99074.31;5058444;28;45388;-55
2021/12/08 01:45:56;;;;;;;;;4.25;0.00;;;;;21.82;34.76;99067.22;5058855;28;45573;-53
2021/12/08 01:46:29;;;;;;;;;1.50;0.00;;;;;21.82;34.78;99080.41;5058412;28;45305;-54
2021/12/08 01:48:54;;;;;;;;;1.50;0.00;;;;;21.82;34.63;99083.03;5058666;28;46065;-51
2021/12/08 01:51:20;;;;;;;;;1.00;1.00;;;;;21.78;34.49;99100.94;5058244;28;45364;-50
2021/12/08 01:53:49;;;;;;;;;0.75;0.75;;;;;21.79;34.47;99122.84;5040219;28;45272;-51
2021/12/08 01:56:16;;;;;;;;;0.50;0.50;;;;;21.78;34.75;99111.50;5058256;28;45327;-52
2021/12/08 01:58:41;;;;;;;;;0.00;0.00;;;;;21.77;34.59;99114.28;5057551;28;45165;-53
2021/12/08 02:01:10;;;;;;;;;0.00;0.00;;;;;21.77;34.57;99114.28;5057942;28;48306;-51
2021/12/08 02:03:37;;;;;;;;;0.00;0.00;;;;;21.75;34.61;99106.47;5058207;28;45741;-51
2021/12/08 02:06:06;;;;;;;;;0.00;0.00;;;;;21.75;34.37;99124.13;5058522;28;45328;-55
2021/12/08 02:08:31;;;;;;;;;0.00;0.00;;;;;21.72;34.75;99116.47;5057539;28;45606;-54
2021/12/08 02:10:58;;;;;;;;;1.75;1.00;;;;;21.69;34.36;99125.47;5058028;28;45295;-54
2021/12/08 02:13:24;;;;;;;;;2.00;1.00;;;;;21.69;34.40;99125.47;5057855;28;45180;-56
2021/12/08 02:15:49;;;;;;;;;2.00;0.00;;;;;21.68;34.56;99130.88;5056577;28;45359;-55
2021/12/08 02:18:16;;;;;;;;;0.00;0.00;;;;;21.67;34.39;99143.22;5058020;28;45573;-50
2021/12/08 02:20:45;;;;;;;;;2.00;0.75;;;;;21.65;34.73;99160.16;5057796;28;45983;-56
2021/12/08 02:23:11;;;;;;;;;1.00;1.00;;;;;21.64;34.45;99156.69;5039819;28;45663;-56
2021/12/08 02:25:37;;;;;;;;;1.00;1.00;;;;;21.61;34.37;99157.78;5057914;28;45253;-53
2021/12/08 02:28:04;;;;;;;;;0.25;0.25;;;;;21.60;34.26;99168.47;5058262;28;45159;-55
2021/12/08 02:30:43;;;;;;;;;0.00;0.00;;;;;21.57;34.71;99161.59;5039728;28;48637;-51
2021/12/08 02:47:27;;;;;;;;;0.00;0.00;;;;;21.44;34.53;99169.75;5057612;28;45192;-52
2021/12/08 02:49:53;;;;;;;;;0.25;0.25;;;;;21.42;34.39;99163.78;5056373;28;45439;-55
2021/12/08 02:52:18;;;;;;;;;1.50;1.00;;;;;21.39;34.91;99160.56;5039132;28;47512;-56
2021/12/08 02:54:47;;;;;;;;;0.25;0.00;;;;;21.39;34.61;99171.94;5057310;28;45212;-53
2021/12/08 02:57:14;;;;;;;;;0.00;0.00;;;;;21.38;34.79;99179.97;5039350;28;45423;-54
2021/12/08 02:59:42;;;;;;;;;2.00;0.00;;;;;21.35;34.46;99183.72;5057401;28;45431;-50
2021/12/08 03:02:08;;;;;;;;;2.00;1.00;;;;;21.35;34.58;99175.81;5057401;28;45449;-50
2021/12/08 03:04:34;;;;;;;;;0.00;0.00;;;;;21.33;34.68;99169.00;5057530;28;45293;-50
2021/12/08 03:07:00;;;;;;;;;0.00;0.00;;;;;21.33;34.80;99161.09;5057249;28;45352;-50
2021/12/08 03:09:26;;;;;;;;;0.00;0.00;;;;;21.34;34.55;99162.75;5057091;28;45573;-55
2021/12/08 03:11:54;;;;;;;;;2.00;0.00;;;;;21.36;34.73;99148.50;5055617;28;46614;-53
2021/12/08 03:14:20;;;;;;;;;1.00;0.75;;;;;21.39;34.32;99142.94;5055674;28;45514;-55
2021/12/08 03:16:54;;;;;;;;;1.00;0.00;;;;;21.42;34.54;99145.31;5057141;28;45267;-54
2021/12/08 03:19:25;;;;;;;;;0.50;0.50;;;;;21.46;34.43;99151.16;5057115;28;45507;-53
2021/12/08 03:21:50;;;;;;;;;1.00;0.00;;;;;21.51;34.35;99135.78;5056826;28;46138;-56
2021/12/08 03:27:03;;;;;;;;;0.00;0.00;;;;;21.57;34.52;99129.97;5056934;28;45366;-56
2021/12/08 03:32:18;;;;;;;;;0.00;0.00;;;;;21.65;34.76;99124.06;5056676;28;45407;-55
2021/12/08 03:34:51;;;;;;;;;0.50;0.00;;;;;21.70;34.62;99118.41;5056670;28;45298;-57
2021/12/08 03:37:20;;;;;;;;;0.00;0.00;;;;;21.73;34.71;99108.41;5055411;28;45372;-57
2021/12/08 03:39:45;;;;;;;;;2.00;0.00;;;;;21.75;34.44;99117.03;5056957;28;45585;-55
2021/12/08 03:42:11;;;;;;;;;0.00;0.00;;;;;21.78;34.50;99116.75;5038342;28;46929;-57
2021/12/08 03:44:37;;;;;;;;;0.00;0.00;;;;;21.81;34.53;99120.09;5056846;28;45383;-58
2021/12/08 03:47:12;;;;;;;;;1.00;0.00;;;;;21.84;34.59;99114.53;5056641;28;45257;-52
2021/12/08 03:49:38;;;;;;;;;1.00;1.00;;;;;21.87;34.19;99116.91;5056870;28;45360;-57
2021/12/08 03:52:04;;;;;;;;;0.00;0.00;;;;;21.89;34.24;99115.78;5056445;28;46718;-54
2021/12/08 03:54:30;;;;;;;;;0.00;0.00;;;;;21.91;34.11;99111.22;5056532;28;45323;-55
2021/12/08 03:56:56;;;;;;;;;0.00;0.00;;;;;21.92;34.21;99110.25;5056646;28;45679;-58
2021/12/08 03:59:22;;;;;;;;;0.50;0.00;;;;;21.96;34.31;99113.44;5056714;28;45401;-56
2021/12/08 04:01:47;;;;;;;;;0.00;0.00;;;;;21.98;34.50;99131.81;5056281;28;46603;-54
2021/12/08 04:04:14;;;;;;;;;0.25;0.25;;;;;21.99;34.17;99123.75;5056324;28;45336;-57
2021/12/08 04:09:16;;;;;;;;;0.50;0.00;;;;;22.03;34.34;99119.88;5056642;28;45367;-57
2021/12/08 04:11:41;;;;;;;;;0.00;0.00;;;;;22.05;33.91;99122.38;5056307;28;46751;-49
2021/12/08 04:14:11;;;;;;;;;0.25;0.25;;;;;22.05;34.39;99123.19;5056505;28;45271;-55
2021/12/08 04:16:50;;;;;;;;;0.00;0.00;;;;;22.07;34.14;99117.78;5038717;28;45375;-55
2021/12/08 04:19:17;;;;;;;;;0.25;0.00;;;;;22.05;34.07;99114.44;5056267;28;45350;-57
2021/12/08 04:21:45;;;;;;;;;0.00;0.00;;;;;22.06;34.19;99124.84;5058687;28;46796;-53
2021/12/08 04:24:12;;;;;;;;;1.00;0.00;;;;;22.05;34.31;99119.72;5059916;28;45384;-55
2021/12/08 04:26:44;;;;;;;;;1.00;1.00;;;;;22.05;34.23;99119.72;5059976;28;45291;-55
2021/12/08 04:29:12;;;;;;;;;0.00;0.00;;;;;22.04;34.40;99125.97;5060216;28;45606;-54
2021/12/08 04:31:40;;;;;;;;;0.50;0.50;;;;;22.01;34.21;99127.09;5059761;28;46223;-57
2021/12/08 04:34:15;;;;;;;;;0.00;0.00;;;;;22.03;33.81;99129.56;5059528;28;45766;-56
2021/12/08 04:36:45;;;;;;;;;0.00;0.00;;;;;22.00;33.97;99117.50;5059928;28;45362;-52
2021/12/08 04:39:37;;;;;;;;;0.00;0.00;;;;;22.00;34.21;99135.97;5059946;28;45543;-53
2021/12/08 04:42:08;;;;;;;;;0.75;0.75;;;;;21.99;33.91;99118.47;5059280;28;46275;-53
2021/12/08 04:44:41;;;;;;;;;1.00;0.00;;;;;22.00;33.86;99135.13;5059347;28;45406;-57
2021/12/08 04:52:29;;;;;;;;;0.50;0.00;;;;;21.96;33.78;99131.09;5059040;28;45561;-56
2021/12/08 05:06:37;;;;;;;;;1.00;0.00;;;;;21.89;33.97;99179.09;5058957;28;45250;-53
2021/12/08 05:09:09;;;;;;;;;0.00;0.00;;;;;21.88;33.81;99169.50;5059101;28;45261;-54
2021/12/08 05:11:38;;;;;;;;;0.50;0.00;;;;;21.85;33.54;99164.53;5059141;28;45338;-56
2021/12/08 05:14:12;;;;;;;;;1.00;0.00;;;;;21.83;33.50;99166.47;5058946;28;45367;-56
2021/12/08 05:16:41;;;;;;;;;0.00;0.00;;;;;21.82;33.79;99175.34;5057518;28;45399;-53
2021/12/08 05:19:14;;;;;;;;;1.25;0.50;;;;;21.78;33.70;99168.66;5058655;28;45348;-51
2021/12/08 05:21:46;;;;;;;;;0.50;0.50;;;;;21.78;33.83;99177.41;5059417;28;45256;-52
2021/12/08 05:24:19;;;;;;;;;3.00;0.00;;;;;21.76;33.51;99175.88;5040746;28;47526;-51
2021/12/08 05:26:59;;;;;;;;;4.00;1.00;;;;;21.73;33.63;99182.25;5058580;28;45751;-50
2021/12/08 05:29:29;;;;;;;;;0.50;0.50;;;;;21.73;33.50;99187.50;5058920;28;45327;-53
2021/12/08 05:31:57;;;;;;;;;0.00;0.00;;;;;21.71;33.97;99189.47;5058680;28;45612;-50
2021/12/08 05:34:23;;;;;;;;;0.00;0.00;;;;;21.69;33.79;99190.56;5058452;28;47363;-56
2021/12/08 05:36:48;;;;;;;;;0.00;0.00;;;;;21.68;33.81;99196.78;5040450;28;45507;-57
2021/12/08 05:39:20;;;;;;;;;0.25;0.25;;;;;21.66;33.90;99201.38;5059000;28;45426;-57
2021/12/08 05:41:49;;;;;;;;;0.00;0.00;;;;;21.63;33.92;99197.19;5041063;28;45852;-53
2021/12/08 05:44:15;;;;;;;;;0.75;0.00;;;;;21.62;33.77;99204.28;5058547;28;46826;-56
2021/12/08 05:46:44;;;;;;;;;0.00;0.00;;;;;21.58;33.85;99212.56;5057211;28;45950;-57
2021/12/08 05:49:13;;;;;;;;;0.50;0.00;;;;;21.56;33.69;99202.13;5058352;28;45419;-56
2021/12/08 05:51:41;;;;;;;;;0.00;0.00;;;;;21.53;33.90;99207.66;5058645;28;45575;-51
2021/12/08 05:54:21;;;;;;;;;0.00;0.00;;;;;21.49;33.75;99200.16;5058209;28;46546;-56
2021/12/08 05:56:49;;;;;;;;;0.00;0.00;;;;;21.50;33.63;99197.38;5058710;28;45872;-52
2021/12/08 05:59:15;;;;;;;;;2.25;0.00;;;;;21.47;33.78;99197.63;5058634;28;45355;-54
2021/12/08 06:01:57;;;;;;;;;0.75;0.00;;;;;21.46;33.85;99193.31;5058432;28;45207;-57
2021/12/08 06:04:25;;;;;;;;;0.00;0.00;;;;;21.44;33.83;99203.19;5058027;28;45483;-57
2021/12/08 06:06:51;;;;;;;;;0.25;0.25;;;;;21.42;34.00;99205.13;5039816;28;45754;-58
2021/12/08 06:09:18;;;;;;;;;0.00;0.00;;;;;21.39;34.03;99185.09;5058461;28;45360;-57
2021/12/08 06:11:45;;;;;;;;;0.00;0.00;;;;;21.40;33.69;99202.59;5058643;28;45382;-56
2021/12/08 06:14:11;;;;;;;;;0.50;0.00;;;;;21.38;33.86;99198.41;5057881;28;46281;-57
2021/12/08 06:16:42;;;;;;;;;0.00;0.00;;;;;21.38;34.13;99182.63;5057884;28;45379;-54
2021/12/08 06:19:09;;;;;;;;;0.25;0.00;;;;;21.40;33.99;99191.22;5056898;28;45265;-54
2021/12/08 06:21:35;;;;;;;;;2.00;1.00;;;;;21.41;34.01;99179.72;5056743;28;45557;-51
2021/12/08 06:24:04;;;;;;;;;0.00;0.00;;;;;21.44;34.25;99179.47;5056319;28;45459;-52
2021/12/08 06:26:30;;;;;;;;;2.50;0.50;;;;;21.46;33.89;99183.63;5056205;28;45333;-54
2021/12/08 06:28:56;;;;;;;;;0.75;0.75;;;;;21.48;34.05;99194.03;5056492;28;45289;-54
2021/12/08 06:31:24;;;;;;;;;0.00;0.00;;;;;21.50;34.16;99192.09;5056728;28;45383;-54
2021/12/08 06:33:50;;;;;;;;;1.00;0.75;;;;;21.51;34.10;99201.69;5054708;28;47480;-58
2021/12/08 06:36:21;;;;;;;;;1.75;1.00;;;;;21.54;34.03;99204.06;5056548;28;45420;-57
2021/12/08 06:38:47;;;;;;;;;2.00;1.00;;;;;21.54;34.12;99206.72;5038326;28;45353;-57
2021/12/08 06:41:24;;;;;;;;;0.25;0.00;;;;;21.55;34.06;99211.00;5056418;28;45647;-55
2021/12/08 06:43:56;;;;;;;;;1.00;1.00;;;;;21.58;33.95;99215.19;5055409;28;46388;-57
2021/12/08 06:46:22;;;;;;;;;0.75;0.75;;;;;21.59;34.51;99215.06;5038395;28;45773;-55
2021/12/08 06:48:54;;;;;;;;;0.00;0.00;;;;;21.61;34.05;99220.22;5038402;28;45292;-56
2021/12/08 06:51:32;;;;;;;;;0.25;0.25;;;;;21.61;33.81;99220.22;5056394;28;45308;-57
2021/12/08 06:54:05;;;;;;;;;1.50;0.00;;;;;21.61;34.28;99210.50;5055864;28;45379;-57
2021/12/08 06:56:36;;;;;;;;;3.00;0.25;;;;;21.65;34.22;99211.06;5055954;28;45446;-56
2021/12/08 06:59:07;;;;;;;;;0.00;0.00;;;;;21.70;34.22;99214.16;5055845;28;45494;-57
2021/12/08 07:07:02;;;;;;;;;0.00;0.00;;;;;21.76;33.74;99207.53;5055827;28;45793;-58
2021/12/08 07:09:28;;;;;;;;;0.75;0.75;;;;;21.78;33.99;99211.69;5055731;28;45338;-57
2021/12/08 07:11:56;;;;;;;;;1.00;0.00;;;;;21.80;34.30;99210.72;5055966;28;45365;-58
2021/12/08 07:14:23;;;;;;;;;0.75;0.75;;;;;21.77;33.75;99217.13;5055398;28;46414;-57
2021/12/08 07:16:53;;;;;;;;;2.00;1.00;;;;;21.75;33.86;99211.13;5055828;28;45372;-56
2021/12/08 07:19:29;;;;;;;;;0.00;0.00;;;;;21.78;34.22;99226.66;5016375;28;1114166;-56
2021/12/08 07:21:57;;;;;;;;;0.00;0.00;;;;;21.80;34.09;99223.91;5057245;28;45363;-57
2021/12/08 07:24:31;;;;;;;;;1.00;1.00;;;;;21.80;34.24;99223.91;5056796;28;45509;-56
2021/12/08 07:27:02;;;;;;;;;0.00;0.00;;;;;21.80;33.79;99239.75;5057477;28;45730;-57
2021/12/08 07:29:31;;;;;;;;;1.00;0.50;;;;;21.81;34.43;99247.50;5057036;28;45348;-56
2021/12/08 07:32:02;;;;;;;;;1.50;1.00;;;;;21.82;34.23;99241.28;5057072;28;45298;-54
2021/12/08 07:34:28;;;;;;;;;0.75;0.00;;;;;21.83;34.11;99248.22;5056419;28;45435;-56
2021/12/08 07:37:02;;;;;;;;;0.00;0.00;;;;;21.84;34.14;99238.50;5055245;28;45736;-54
2021/12/08 07:39:31;;;;;;;;;0.00;0.00;;;;;21.83;34.19;99237.66;5056403;28;45300;-56
2021/12/08 07:42:01;;;;;;;;;0.00;0.00;;;;;21.84;34.26;99247.25;5056873;28;45413;-56
2021/12/08 07:44:26;;;;;;;;;0.00;0.00;;;;;21.84;34.22;99255.16;5055632;28;46652;-53
2021/12/08 07:47:22;;;;;;;;;0.25;0.25;;;;;21.84;33.96;99252.53;5056253;28;45352;-51
2021/12/08 07:49:52;;;;;;;;;1.25;0.00;;;;;21.83;34.04;99256.13;5044053;28;45320;-55
2021/12/08 07:52:26;;;;;;;;;0.75;0.00;;;;;21.83;34.10;99250.03;5057131;28;45363;-55
2021/12/08 07:54:53;;;;;;;;;0.00;0.00;;;;;21.84;34.21;99236.69;5055867;28;45388;-53
2021/12/08 07:57:26;;;;;;;;;1.00;0.00;;;;;21.82;34.00;99237.81;5056385;28;45857;-54
2021/12/08 07:59:56;;;;;;;;;0.00;0.00;;;;;21.82;34.34;99246.53;5056765;28;45457;-52
2021/12/08 08:02:25;;;;;;;;;1.50;1.50;;;;;21.80;34.12;99234.47;5057044;28;45540;-55
2021/12/08 08:04:55;;;;;;;;;0.25;0.25;;;;;21.80;34.21;99237.94;5056297;28;46271;-52
2021/12/08 08:07:21;;;;;;;;;2.25;1.00;;;;;21.79;34.37;99244.16;5038362;28;45663;-56
2021/12/08 08:09:49;;;;;;;;;0.00;0.00;;;;;21.75;34.03;99235.69;5056252;28;45428;-55
2021/12/08 08:12:21;;;;;;;;;1.75;0.00;;;;;21.77;34.50;99232.94;5038269;28;45463;-51
2021/12/08 08:14:53;;;;;;;;;1.00;0.00;;;;;21.75;33.94;99242.78;5055945;28;46642;-53
2021/12/08 08:17:28;;;;;;;;;1.25;1.25;;;;;21.72;33.55;99243.03;5056426;28;45574;-58
2021/12/08 08:19:55;;;;;;;;;1.25;1.00;;;;;21.66;33.12;99248.84;5056400;28;45344;-52
2021/12/08 08:22:29;;;;;;;;;0.25;0.25;;;;;21.61;32.98;99244.78;5056618;28;45533;-51
2021/12/08 08:24:57;;;;;;;;;3.50;1.00;;;;;21.56;33.22;99249.56;5037831;28;47362;-51
2021/12/08 08:27:25;;;;;;;;;1.00;0.75;;;;;21.52;32.60;99244.69;5056348;28;45764;-50
2021/12/08 08:29:54;;;;;;;;;2.50;1.25;;;;;21.46;32.69;99254.81;5055220;28;45275;-53
2021/12/08 08:32:30;;;;;;;;;1.00;1.00;;;;;21.42;32.09;99252.56;5056585;28;45434;-51
2021/12/08 08:35:08;;;;;;;;;1.75;1.75;;;;;21.35;32.27;99259.28;5055984;28;46690;-49
2021/12/08 08:37:34;;;;;;;;;2.50;0.25;;;;;21.34;32.02;99270.78;5055814;28;45639;-52
2021/12/08 08:40:08;;;;;;;;;3.00;1.00;;;;;21.30;32.24;99267.59;5056108;28;45229;-51
2021/12/08 08:42:39;;;;;;;;;3.00;0.00;;;;;21.26;31.69;99271.47;5056251;28;45404;-53
2021/12/08 08:45:23;;;;;;;;;1.75;1.00;;;;;21.23;31.90;99280.44;5055667;28;45815;-57
2021/12/08 08:48:12;;;;;;;;;3.50;2.00;;;;;21.21;32.07;99276.25;5037741;28;45370;-51
2021/12/08 08:50:44;;;;;;;;;1.75;1.75;;;;;21.17;32.39;99273.03;5055780;28;45295;-48
2021/12/08 08:53:10;;;;;;;;;1.00;1.00;;;;;21.14;32.50;99281.19;5056104;28;45277;-52
2021/12/08 08:55:43;;;;;;;;;2.00;0.75;;;;;21.12;32.11;99272.56;5055699;28;46379;-50
2021/12/08 08:58:11;;;;;;;;;1.25;1.25;;;;;21.09;32.69;99268.41;5055646;28;45341;-55
2021/12/08 09:00:46;;;;;;;;;1.50;1.50;;;;;21.08;32.55;99265.91;5055588;28;45269;-51
2021/12/08 09:03:16;;;;;;;;;1.00;1.00;;;;;21.05;32.32;99268.78;5055769;28;45236;-53
2021/12/08 09:05:55;;;;;;;;;3.00;2.25;;;;;21.03;32.20;99268.06;5055322;28;47298;-54
2021/12/08 09:08:24;;;;;;;;;0.75;0.75;;;;;21.00;32.79;99263.91;5058649;28;45735;-51
2021/12/08 09:10:53;;;;;;;;;0.75;0.75;;;;;20.98;32.65;99276.34;5059150;28;45541;-53
2021/12/08 09:13:31;;;;;;;;;1.50;1.00;;;;;20.97;33.26;99275.53;5059009;28;45520;-55
2021/12/08 09:16:02;;;;;;;;;5.50;1.50;;;;;20.97;32.98;99282.59;5058629;28;45477;-53
2021/12/08 09:18:42;;;;;;;;;1.50;1.00;;;;;20.98;33.11;99295.66;5058505;28;45399;-54
2021/12/08 09:21:29;;;;;;;;;3.00;1.25;;;;;20.97;33.66;99296.59;5058921;28;45430;-55
2021/12/08 09:24:05;;;;;;;;;1.00;0.00;;;;;20.98;33.79;99307.97;5059320;28;45371;-53
2021/12/08 09:26:33;;;;;;;;;2.00;2.00;;;;;20.98;33.51;99303.53;5058651;28;46442;-53
2021/12/08 09:29:10;;;;;;;;;2.00;2.00;;;;;20.96;33.38;99305.47;5058550;28;45405;-56
2021/12/08 09:31:45;;;;;;;;;1.50;0.00;;;;;20.95;33.96;99305.56;5058653;28;45312;-57
2021/12/08 09:34:23;;;;;;;;;0.75;0.75;;;;;20.93;34.16;99305.69;5058637;28;45178;-56
2021/12/08 09:36:56;;;;;;;;;1.00;1.00;;;;;20.93;34.07;99315.41;5058535;28;46396;-57
2021/12/08 09:39:35;;;;;;;;;1.00;1.00;;;;;20.90;34.00;99308.56;5058508;28;45798;-56
2021/12/08 09:42:07;;;;;;;;;0.50;0.50;;;;;20.91;34.22;99307.63;5058540;28;45470;-56
2021/12/08 09:44:56;;;;;;;;;3.75;0.50;;;;;20.86;34.45;99309.81;5058500;28;45487;-58
2021/12/08 09:47:28;;;;;;;;;0.75;0.75;;;;;20.88;34.50;99318.44;5058292;28;45590;-56
2021/12/08 09:49:56;;;;;;;;;4.00;1.00;;;;;20.87;34.43;99322.03;5058490;28;45761;-57
2021/12/08 09:52:21;;;;;;;;;1.00;1.00;;;;;20.89;34.48;99324.50;5058410;28;45354;-57
2021/12/08 09:54:46;;;;;;;;;2.25;2.25;;;;;20.87;34.91;99322.03;5058477;28;45379;-56
2021/12/08 09:57:14;;;;;;;;;1.00;1.00;;;;;20.88;34.91;99317.56;5039865;28;47061;-57
2021/12/08 09:59:46;;;;;;;;;1.00;1.00;;;;;20.89;34.79;99314.81;5058158;28;45399;-56
2021/12/08 10:02:18;;;;;;;;;2.00;2.00;;;;;20.88;34.71;99312.31;5058128;28;45351;-56
2021/12/08 10:04:43;;;;;;;;;2.00;1.00;;;;;20.88;34.27;99307.03;5058403;28;45320;-56
2021/12/08 10:07:10;;;;;;;;;1.50;0.50;;;;;20.87;34.56;99300.94;5057836;28;45595;-54
2021/12/08 10:09:36;;;;;;;;;2.50;1.00;;;;;20.88;34.75;99301.78;5057836;28;45369;-57
2021/12/08 10:12:02;;;;;;;;;0.00;0.00;;;;;20.87;34.93;99300.94;5058192;28;45428;-56
2021/12/08 10:14:28;;;;;;;;;1.00;1.00;;;;;20.85;34.88;99298.41;5058405;28;45315;-54
2021/12/08 10:16:54;;;;;;;;;2.50;1.00;;;;;20.85;34.37;99294.97;5057676;28;45508;-57
2021/12/08 10:19:19;;;;;;;;;1.25;1.00;;;;;20.85;34.46;99290.53;5056649;28;45531;-57
2021/12/08 10:21:46;;;;;;;;;1.50;0.00;;;;;20.85;34.29;99280.00;5057675;28;45672;-57
2021/12/08 10:24:30;;;;;;;;;0.25;0.25;;;;;20.85;34.64;99287.06;5057978;28;45579;-56
2021/12/08 10:27:08;;;;;;;;;1.00;1.00;;;;;20.82;34.57;99293.44;5023193;28;47197;-57
2021/12/08 10:29:34;;;;;;;;;3.25;0.25;;;;;20.84;34.71;99302.00;5057512;28;45460;-57
2021/12/08 10:32:01;;;;;;;;;1.00;1.00;;;;;20.84;34.12;99301.19;5057988;28;45401;-55
2021/12/08 10:34:40;;;;;;;;;2.00;1.00;;;;;20.82;34.56;99293.44;5058178;28;45539;-56
2021/12/08 10:37:24;;;;;;;;;0.25;0.00;;;;;20.83;34.33;99299.50;5057467;28;45552;-56
2021/12/08 10:39:54;;;;;;;;;1.00;1.00;;;;;20.83;34.58;99300.38;5057343;28;45316;-57
2021/12/08 10:42:22;;;;;;;;;0.50;0.00;;;;;20.83;34.65;99302.16;5057605;28;45345;-57
2021/12/08 10:44:53;;;;;;;;;2.00;0.75;;;;;20.81;34.52;99301.44;5057585;28;45546;-58
2021/12/08 10:47:27;;;;;;;;;0.50;0.00;;;;;20.82;34.33;99297.84;5039011;28;46733;-58
2021/12/08 10:55:15;;;;;;;;;4.00;1.00;;;;;20.80;34.40;99291.84;5057407;28;45466;-56
2021/12/08 10:57:40;;;;;;;;;0.25;0.25;;;;;20.80;34.24;99294.50;5057024;28;47140;-57
2021/12/08 11:00:08;;;;;;;;;0.75;0.00;;;;;20.80;34.14;99297.13;5057085;28;45524;-56
2021/12/08 11:02:53;;;;;;;;;0.00;0.00;;;;;20.79;34.00;99292.81;5057163;28;45312;-57
2021/12/08 11:05:24;;;;;;;;;1.00;1.00;;;;;20.79;34.27;99292.81;5057338;28;45452;-57
2021/12/08 11:08:10;;;;;;;;;1.00;0.00;;;;;20.79;34.38;99298.06;5056796;28;45494;-56
2021/12/08 11:10:40;;;;;;;;;1.00;1.00;;;;;20.78;33.68;99307.78;5056834;28;45462;-55
2021/12/08 11:13:07;;;;;;;;;0.00;0.00;;;;;20.77;34.07;99300.03;5038927;28;45272;-55
2021/12/08 11:15:33;;;;;;;;;0.50;0.00;;;;;20.73;33.94;99301.19;5039069;28;45684;-55
2021/12/08 11:18:21;;;;;;;;;2.00;1.00;;;;;20.76;34.01;99307.06;5056874;28;45557;-56
2021/12/08 11:21:18;;;;;;;;;1.00;1.00;;;;;20.75;34.28;99296.66;5055377;28;46133;-57
2021/12/08 11:23:46;;;;;;;;;1.75;1.00;;;;;20.69;34.40;99292.72;5056251;28;45442;-59
2021/12/08 11:26:18;;;;;;;;;2.25;1.00;;;;;20.74;33.94;99295.81;5056990;28;45515;-57
2021/12/08 11:29:10;;;;;;;;;3.75;1.00;;;;;20.73;34.29;99288.03;5056683;28;46687;-57
2021/12/08 11:32:09;;;;;;;;;5.00;5.00;;;;;20.73;34.19;99285.41;5032626;28;45348;-57
2021/12/08 11:34:39;;;;;;;;;7.00;4.25;;;;;20.74;34.42;99289.69;5043284;28;45320;-57
2021/12/08 11:37:14;;;;;;;;;7.50;7.25;;;;;20.73;34.01;99288.03;5056871;28;45570;-54
2021/12/08 11:39:44;;;;;;;;;7.50;7.50;;;;;20.72;34.39;99281.09;5056558;28;45611;-57
2021/12/08 11:42:25;;;;;;;;;7.75;7.25;;;;;20.69;34.16;99288.25;5056388;28;45289;-57
2021/12/08 11:44:54;;;;;;;;;6.50;6.00;;;;;20.70;34.17;99297.84;5056664;28;45434;-57
2021/12/08 11:47:33;;;;;;;;;7.00;6.50;;;;;20.69;34.62;99293.53;5056712;28;45320;-55
2021/12/08 11:50:01;;;;;;;;;7.00;5.50;;;;;20.69;34.00;99296.16;5056035;28;46501;-58
2021/12/08 11:52:32;;;;;;;;;9.50;5.75;;;;;20.67;34.13;99299.88;5056459;28;45815;-53
2021/12/08 11:55:11;;;;;;;;;8.00;4.50;;;;;20.66;34.19;99292.94;5055027;28;45166;-55
2021/12/08 11:57:37;;;;;;;;;9.00;7.75;;;;;20.68;34.51;99304.19;5056626;28;45666;-57
2021/12/08 12:00:23;;;;;;;;;5.00;5.00;;;;;20.66;34.32;99309.59;5056541;28;45427;-57
2021/12/08 12:03:00;;;;;;;;;6.50;5.50;;;;;20.66;34.64;99314.00;5056209;28;46070;-54
2021/12/08 12:05:29;;;;;;;;;7.25;4.50;;;;;20.62;34.23;99302.88;5056310;28;45237;-57
2021/12/08 12:07:55;;;;;;;;;8.00;5.50;;;;;20.69;34.33;99303.25;5056461;28;45511;-54
2021/12/08 12:10:24;;;;;;;;;4.25;3.00;;;;;20.72;34.31;99313.53;5038041;28;46805;-57
2021/12/08 12:12:51;;;;;;;;;4.75;3.25;;;;;20.76;34.23;99314.16;5056134;28;45325;-57
2021/12/08 12:15:19;;;;;;;;;6.25;4.00;;;;;20.80;34.22;99315.56;5056234;28;45450;-56
2021/12/08 12:17:49;;;;;;;;;6.00;2.00;;;;;20.86;34.67;99307.19;5056077;28;45439;-56
2021/12/08 12:20:22;;;;;;;;;5.50;4.25;;;;;20.93;34.62;99318.88;5056138;28;45485;-57
2021/12/08 12:23:05;;;;;;;;;6.25;5.00;;;;;21.01;34.67;99313.81;5056042;28;45913;-56
2021/12/08 12:26:28;;;;;;;;;4.00;2.75;;;;;21.07;34.15;99314.28;5056631;28;45736;-56
2021/12/08 12:29:08;;;;;;;;;2.75;2.50;;;;;21.12;34.66;99314.72;4994058;28;45649;-56
2021/12/08 12:32:01;;;;;;;;;4.00;3.50;;;;;21.17;34.16;99320.47;5055981;28;45492;-57
2021/12/08 12:34:36;;;;;;;;;4.00;2.50;;;;;21.22;34.66;99320.09;5037608;28;45909;-56
2021/12/08 12:37:17;;;;;;;;;3.50;3.50;;;;;21.25;34.60;99336.47;5056263;28;45395;-57
2021/12/08 12:39:51;;;;;;;;;6.75;4.75;;;;;21.29;34.53;99345.81;5056185;28;45216;-57
2021/12/08 12:42:18;;;;;;;;;4.25;2.75;;;;;21.29;34.25;99337.91;5057475;28;46303;-57